Aviation Digital Data Service (ADDS)

Output produced by METARs form (0304 UTC 14 December 2018)
found at http://aviationweather.gov/metar/data/
 
METAR text: KJOT 140255Z AUTO 06003KT 3SM RA OVC006 05/05 A3008 RMK AO2 P0004 60006 T00520052
Conditions at: KJOT (JOLIET , IL, US) observed 0255 UTC 14 December 2018
Temperature: 5.2°C (41°F)
Dewpoint: 5.2°C (41°F) [RH = 100%]
Pressure (altimeter): 30.08 inches Hg (1018.7 mb)
Winds: from the ENE (60 degrees) at 3 MPH (3 knots; 1.5 m/s)
Visibility: 3 miles ( 5 km)
Ceiling: 600 feet AGL
Clouds: overcast cloud deck at 600 feet AGL
Weather: RA  (moderate rain)